Time;durP1;ratioP1;P1;durP2;ratioP2;P2;SDS_P1;SDS_P2;PMS_P1;PMS_P2;Temp;Humidity;BMP_temperature;BMP_pressure;BME280_temperature;BME280_humidity;BME280_pressure;Samples;Min_cycle;Max_cycle;Signal;HPM_P1;HPM_P2
2022/02/18 00:00:56;;;;;;;4.60;0.90;;;14.30;77.10;;;;;;5101671;28;20032;-76
2022/02/18 00:03:25;;;;;;;4.57;0.80;;;14.30;77.00;;;;;;5095495;28;20448;-76
2022/02/18 00:05:52;;;;;;;8.25;1.20;;;14.30;77.70;;;;;;5093385;28;20024;-76
2022/02/18 00:08:18;;;;;;;5.05;0.88;;;14.30;76.90;;;;;;5093023;28;20023;-76
2022/02/18 00:10:44;;;;;;;3.35;0.77;;;14.30;77.00;;;;;;5095287;28;20424;-76
2022/02/18 00:13:10;;;;;;;3.22;0.90;;;14.30;76.50;;;;;;5078022;28;20438;-76
2022/02/18 00:15:36;;;;;;;3.97;0.80;;;14.30;76.60;;;;;;5095615;28;20052;-75
2022/02/18 00:18:02;;;;;;;5.88;1.10;;;14.30;76.70;;;;;;5094511;28;20026;-76
2022/02/18 00:20:29;;;;;;;5.40;1.20;;;14.30;77.00;;;;;;5091652;28;20031;-76
2022/02/18 00:22:55;;;;;;;6.38;1.20;;;14.30;76.70;;;;;;5097010;28;20594;-76
2022/02/18 00:25:21;;;;;;;5.93;1.20;;;14.30;76.90;;;;;;5095427;28;20557;-76
2022/02/18 00:27:47;;;;;;;8.32;1.35;;;14.30;77.30;;;;;;5095282;28;20032;-77
2022/02/18 00:30:12;;;;;;;5.15;0.90;;;14.20;77.00;;;;;;5093078;28;20024;-76
2022/02/18 00:32:39;;;;;;;6.30;1.20;;;14.20;77.30;;;;;;5091331;28;20040;-76
2022/02/18 00:35:05;;;;;;;8.80;1.17;;;14.20;77.40;;;;;;5096926;28;20020;-77
2022/02/18 00:37:31;;;;;;;6.25;1.08;;;14.20;77.20;;;;;;5095254;28;20031;-76
2022/02/18 00:39:57;;;;;;;6.55;1.00;;;14.20;77.90;;;;;;5095172;28;20081;-77
2022/02/18 00:42:24;;;;;;;5.22;1.00;;;14.20;79.00;;;;;;5095293;28;20020;-76
2022/02/18 00:44:50;;;;;;;4.97;0.80;;;14.20;78.30;;;;;;5092392;28;20032;-76
2022/02/18 00:47:16;;;;;;;6.78;1.00;;;14.10;78.60;;;;;;5074093;28;20450;-76
2022/02/18 00:49:41;;;;;;;4.20;0.80;;;14.20;78.50;;;;;;5096592;28;20024;-76
2022/02/18 00:52:08;;;;;;;4.40;0.70;;;14.10;79.00;;;;;;5095242;28;20086;-76
2022/02/18 00:54:34;;;;;;;5.00;0.75;;;14.10;79.40;;;;;;5093866;28;20229;-76
2022/02/18 00:56:59;;;;;;;3.38;0.85;;;14.10;79.60;;;;;;5092976;28;20748;-76
2022/02/18 00:59:25;;;;;;;3.08;0.98;;;14.10;80.50;;;;;;5091259;28;20032;-76
2022/02/18 01:01:51;;;;;;;4.10;0.80;;;14.10;79.60;;;;;;5096545;28;20028;-76
2022/02/18 01:04:17;;;;;;;3.75;0.70;;;14.10;79.60;;;;;;5094673;28;20622;-76
2022/02/18 01:06:44;;;;;;;2.63;0.47;;;14.10;80.00;;;;;;5093853;28;20061;-76
2022/02/18 01:09:10;;;;;;;2.05;0.50;;;14.10;79.90;;;;;;5090225;28;20020;-76
2022/02/18 01:11:35;;;;;;;3.38;0.63;;;14.10;80.20;;;;;;5106555;28;20511;-76
2022/02/18 01:14:03;;;;;;;4.13;0.60;;;14.00;80.10;;;;;;5092436;28;20024;-76
2022/02/18 01:16:28;;;;;;;2.83;0.45;;;14.00;80.20;;;;;;5094259;28;20416;-76
2022/02/18 01:18:54;;;;;;;1.70;0.28;;;14.00;80.80;;;;;;5094254;28;20058;-75
2022/02/18 01:21:20;;;;;;;1.45;0.30;;;14.00;80.90;;;;;;5089810;28;20060;-76
2022/02/18 01:23:47;;;;;;;1.85;0.40;;;14.00;80.60;;;;;;5095884;28;20030;-76
2022/02/18 01:26:13;;;;;;;1.65;0.32;;;14.00;81.40;;;;;;5107013;28;20028;-76
2022/02/18 01:28:39;;;;;;;1.80;0.50;;;14.00;81.30;;;;;;5103356;28;20395;-76
2022/02/18 01:31:04;;;;;;;3.08;0.50;;;13.90;80.80;;;;;;5097137;28;20093;-76
2022/02/18 01:33:30;;;;;;;0.95;0.30;;;14.00;81.20;;;;;;5094437;28;20511;-76
2022/02/18 01:35:55;;;;;;;2.00;0.38;;;14.00;81.30;;;;;;5074540;28;21889;-75
2022/02/18 01:38:21;;;;;;;1.08;0.20;;;14.00;80.70;;;;;;5091495;28;20020;-76
2022/02/18 01:40:47;;;;;;;2.22;0.40;;;14.10;80.50;;;;;;5096776;28;20052;-76
2022/02/18 01:43:13;;;;;;;0.63;0.20;;;14.10;80.80;;;;;;5098362;28;20031;-75
2022/02/18 01:45:38;;;;;;;1.00;0.25;;;14.00;80.90;;;;;;5098452;28;20024;-76
2022/02/18 01:48:04;;;;;;;1.52;0.35;;;14.00;80.80;;;;;;5096211;28;20027;-76
2022/02/18 01:50:30;;;;;;;0.98;0.15;;;14.00;80.90;;;;;;5110126;28;20149;-77
2022/02/18 01:52:56;;;;;;;0.95;0.20;;;14.10;81.10;;;;;;5113819;28;20031;-77
2022/02/18 01:55:23;;;;;;;2.05;0.40;;;14.10;81.30;;;;;;5081717;28;20028;-76
2022/02/18 01:57:55;;;;;;;1.58;0.30;;;14.10;80.90;;;;;;5101345;28;20032;-76
2022/02/18 02:00:24;;;;;;;0.50;0.20;;;14.10;80.70;;;;;;5107280;28;20020;-76
2022/02/18 02:02:50;;;;;;;0.60;0.20;;;14.10;81.10;;;;;;5088316;28;20055;-76
2022/02/18 02:05:17;;;;;;;1.27;0.30;;;14.10;81.20;;;;;;5111836;28;20572;-76
2022/02/18 02:07:45;;;;;;;1.77;0.32;;;14.10;81.00;;;;;;5097675;28;20098;-76
2022/02/18 02:10:12;;;;;;;2.15;0.20;;;14.10;80.80;;;;;;5097932;28;20025;-76
2022/02/18 02:12:42;;;;;;;0.70;0.28;;;14.10;80.90;;;;;;5098147;28;20027;-76
2022/02/18 02:15:10;;;;;;;1.48;0.30;;;14.10;80.80;;;;;;5097744;28;20043;-75
2022/02/18 02:17:36;;;;;;;1.45;0.32;;;14.10;81.10;;;;;;5076703;28;20020;-76
2022/02/18 02:20:04;;;;;;;0.75;0.20;;;14.00;81.20;;;;;;5106099;28;20111;-76
2022/02/18 02:22:29;;;;;;;1.05;0.20;;;14.00;81.50;;;;;;5097545;28;20016;-76
2022/02/18 02:24:55;;;;;;;0.57;0.20;;;14.00;82.10;;;;;;5085124;28;20058;-76
2022/02/18 02:27:24;;;;;;;0.25;0.10;;;13.90;82.50;;;;;;5100327;28;20107;-76
2022/02/18 02:29:51;;;;;;;0.95;0.20;;;13.90;82.50;;;;;;5095052;28;20051;-77
2022/02/18 02:32:17;;;;;;;0.60;0.20;;;13.90;82.30;;;;;;5095677;28;20174;-76
2022/02/18 02:34:43;;;;;;;0.90;0.30;;;14.00;82.60;;;;;;5110337;28;20548;-76
2022/02/18 02:37:10;;;;;;;0.95;0.20;;;13.90;82.20;;;;;;5100916;28;20104;-76
2022/02/18 02:39:36;;;;;;;1.55;0.25;;;13.90;82.50;;;;;;5096298;28;20028;-76
2022/02/18 02:42:02;;;;;;;2.35;0.40;;;13.90;82.90;;;;;;5099966;28;20024;-76
2022/02/18 02:44:29;;;;;;;2.35;0.38;;;13.90;82.30;;;;;;5076119;28;20765;-77
2022/02/18 02:46:55;;;;;;;1.30;0.30;;;13.90;82.80;;;;;;5099331;28;20020;-76
2022/02/18 02:49:21;;;;;;;1.80;0.32;;;13.90;82.80;;;;;;5088424;28;20151;-76
2022/02/18 02:51:47;;;;;;;1.48;0.30;;;13.90;82.60;;;;;;5104358;28;20093;-74
2022/02/18 02:54:12;;;;;;;1.15;0.28;;;13.90;82.60;;;;;;5095916;28;20062;-76
2022/02/18 02:56:38;;;;;;;1.45;0.30;;;14.00;82.70;;;;;;5092950;28;20056;-76
2022/02/18 02:59:04;;;;;;;1.42;0.20;;;14.00;82.50;;;;;;5085654;28;20044;-76
2022/02/18 03:01:30;;;;;;;2.63;0.40;;;14.00;83.40;;;;;;5096523;28;20028;-76
2022/02/18 03:03:56;;;;;;;1.25;0.47;;;14.00;82.50;;;;;;5099092;28;20028;-76
2022/02/18 03:06:22;;;;;;;2.05;0.30;;;14.00;82.70;;;;;;5101593;28;20053;-77
2022/02/18 03:08:48;;;;;;;2.58;0.45;;;14.00;82.10;;;;;;5093044;28;20047;-76
2022/02/18 03:11:16;;;;;;;1.65;0.40;;;14.00;82.70;;;;;;5111180;28;20571;-76
2022/02/18 03:13:53;;;;;;;3.50;0.98;;;14.00;82.30;;;;;;5095703;28;20038;-76
2022/02/18 03:16:21;;;;;;;3.20;0.50;;;14.00;82.30;;;;;;5095536;28;20037;-76
2022/02/18 03:18:47;;;;;;;3.50;0.60;;;13.90;82.10;;;;;;5098321;28;20035;-76
2022/02/18 03:21:14;;;;;;;2.83;0.60;;;13.90;82.60;;;;;;5106154;28;20031;-76
2022/02/18 03:23:40;;;;;;;2.22;0.63;;;13.90;83.00;;;;;;5091313;28;20508;-76
2022/02/18 03:26:09;;;;;;;4.60;0.70;;;13.80;83.00;;;;;;5099069;28;20389;-76
2022/02/18 03:28:35;;;;;;;2.85;0.50;;;13.80;82.90;;;;;;5091502;28;20039;-76
2022/02/18 03:31:03;;;;;;;3.15;0.60;;;13.80;83.60;;;;;;5101003;28;20032;-76
2022/02/18 03:33:29;;;;;;;4.50;1.23;;;13.80;83.30;;;;;;5102714;28;20094;-76
2022/02/18 03:35:55;;;;;;;4.63;0.63;;;13.70;83.10;;;;;;5092092;28;20063;-76
2022/02/18 03:38:21;;;;;;;3.53;0.70;;;13.70;83.50;;;;;;5097036;28;20710;-76
2022/02/18 03:40:47;;;;;;;4.60;0.90;;;13.80;83.60;;;;;;5097239;28;20079;-76
2022/02/18 03:43:14;;;;;;;3.38;0.80;;;13.70;84.00;;;;;;5091612;28;20032;-76
2022/02/18 03:45:39;;;;;;;2.28;0.50;;;13.70;83.90;;;;;;5086804;28;20065;-76
2022/02/18 03:48:05;;;;;;;3.60;0.70;;;13.70;83.60;;;;;;5099796;28;20047;-76
2022/02/18 03:50:31;;;;;;;4.10;1.35;;;13.60;83.60;;;;;;5091553;28;20113;-76
2022/02/18 03:52:57;;;;;;;2.35;0.60;;;13.50;83.70;;;;;;5105805;28;20074;-75
2022/02/18 03:55:24;;;;;;;2.00;0.52;;;13.50;84.30;;;;;;5095431;28;20601;-76
2022/02/18 03:57:50;;;;;;;2.63;0.63;;;13.50;84.20;;;;;;5094464;28;20027;-75
2022/02/18 04:00:16;;;;;;;3.78;0.60;;;13.40;84.60;;;;;;5094777;28;20024;-75
2022/02/18 04:02:42;;;;;;;2.08;0.52;;;13.40;84.80;;;;;;5091256;28;20039;-76
2022/02/18 04:05:08;;;;;;;3.50;0.60;;;13.40;84.60;;;;;;5095633;28;20028;-76
2022/02/18 04:07:34;;;;;;;1.35;0.30;;;13.40;85.20;;;;;;5102593;28;20019;-76
2022/02/18 04:10:00;;;;;;;4.18;0.43;;;13.40;85.00;;;;;;5104636;28;20050;-76
2022/02/18 04:12:25;;;;;;;2.97;0.50;;;13.40;85.40;;;;;;5098165;28;20031;-76
2022/02/18 04:14:51;;;;;;;1.30;0.30;;;13.30;84.90;;;;;;5091981;28;20035;-76
2022/02/18 04:17:17;;;;;;;1.38;0.40;;;13.30;85.40;;;;;;5093554;28;20023;-76
2022/02/18 04:19:43;;;;;;;1.85;0.30;;;13.30;85.20;;;;;;5079114;28;20074;-76
2022/02/18 04:22:09;;;;;;;1.40;0.40;;;13.30;85.20;;;;;;5094901;28;20454;-76
2022/02/18 04:24:34;;;;;;;2.80;0.50;;;13.40;85.40;;;;;;5093750;28;20036;-76
2022/02/18 04:27:00;;;;;;;1.38;0.30;;;13.30;85.20;;;;;;5092206;28;20073;-76
2022/02/18 04:29:26;;;;;;;1.42;0.30;;;13.30;85.20;;;;;;5106709;28;20043;-76
2022/02/18 04:31:52;;;;;;;1.50;0.30;;;13.30;85.60;;;;;;5096196;28;20038;-75
2022/02/18 04:34:18;;;;;;;1.55;0.30;;;13.30;85.30;;;;;;5090019;28;20077;-76
2022/02/18 04:36:43;;;;;;;3.20;0.90;;;13.30;84.80;;;;;;5095497;28;20023;-75
2022/02/18 04:39:09;;;;;;;2.80;0.60;;;13.40;85.30;;;;;;5089484;28;20031;-75
2022/02/18 04:41:36;;;;;;;2.63;0.60;;;13.40;85.10;;;;;;5091222;28;20036;-75
2022/02/18 04:44:01;;;;;;;2.58;0.40;;;13.40;85.70;;;;;;5117562;27;20023;-76
2022/02/18 04:46:27;;;;;;;2.30;0.70;;;13.40;85.70;;;;;;5094959;28;20400;-76
2022/02/18 04:48:54;;;;;;;2.35;0.43;;;13.40;85.60;;;;;;5094467;28;20472;-75
2022/02/18 04:51:21;;;;;;;3.05;0.70;;;13.50;85.90;;;;;;5090065;28;20028;-76
2022/02/18 04:53:46;;;;;;;3.22;0.60;;;13.40;84.90;;;;;;5091130;28;20388;-76
2022/02/18 04:56:12;;;;;;;1.85;0.63;;;13.40;85.50;;;;;;5094446;28;20032;-76
2022/02/18 04:58:38;;;;;;;1.98;0.68;;;13.50;85.60;;;;;;5094642;28;20035;-76
2022/02/18 05:01:09;;;;;;;3.33;1.15;;;13.50;85.80;;;;;;5089243;28;20112;-76
2022/02/18 05:03:35;;;;;;;3.08;0.75;;;13.50;85.60;;;;;;5092812;28;20028;-76
2022/02/18 05:06:04;;;;;;;4.45;0.60;;;13.50;85.80;;;;;;5093287;28;20031;-76
2022/02/18 05:08:31;;;;;;;4.45;0.70;;;13.50;85.60;;;;;;5106188;28;20020;-76
2022/02/18 05:10:57;;;;;;;2.25;0.40;;;13.50;85.00;;;;;;5096084;28;20130;-76
2022/02/18 05:13:22;;;;;;;1.60;0.40;;;13.50;85.40;;;;;;5080486;28;20074;-76
2022/02/18 05:15:48;;;;;;;3.00;0.57;;;13.60;85.60;;;;;;5079478;28;20044;-76
2022/02/18 05:18:14;;;;;;;3.53;0.60;;;13.60;85.30;;;;;;5090063;28;20079;-75
2022/02/18 05:20:39;;;;;;;3.92;0.70;;;13.50;85.20;;;;;;5087222;28;20028;-76
2022/02/18 05:23:05;;;;;;;1.77;0.70;;;13.60;85.20;;;;;;5099763;28;20102;-76
2022/02/18 05:25:31;;;;;;;4.18;0.77;;;13.60;85.70;;;;;;5094122;28;20107;-75
2022/02/18 05:27:58;;;;;;;2.72;0.50;;;13.60;85.50;;;;;;5097046;28;20047;-76
2022/02/18 05:30:24;;;;;;;3.78;0.60;;;13.60;85.40;;;;;;5097634;28;20024;-76
2022/02/18 05:32:50;;;;;;;3.53;0.60;;;13.60;85.70;;;;;;5091515;28;20038;-76
2022/02/18 05:35:15;;;;;;;3.60;1.00;;;13.60;85.60;;;;;;5076599;28;20388;-76
2022/02/18 05:37:41;;;;;;;4.72;0.70;;;13.70;85.90;;;;;;5090341;28;20032;-75
2022/02/18 05:40:07;;;;;;;3.90;0.90;;;13.60;85.80;;;;;;5095209;28;20028;-75
2022/02/18 05:42:33;;;;;;;2.42;0.60;;;13.70;85.60;;;;;;5093763;28;20016;-76
2022/02/18 05:44:58;;;;;;;4.07;0.80;;;13.70;85.80;;;;;;5092471;28;20080;-76
2022/02/18 05:47:24;;;;;;;3.75;0.60;;;13.60;85.30;;;;;;5106055;28;20568;-76
2022/02/18 05:49:50;;;;;;;3.53;0.80;;;13.60;85.80;;;;;;5095583;28;20095;-76
2022/02/18 05:52:15;;;;;;;3.88;0.70;;;13.70;85.20;;;;;;5098398;28;20513;-76
2022/02/18 05:54:41;;;;;;;3.35;0.60;;;13.60;85.30;;;;;;5099841;28;20023;-76
2022/02/18 05:57:07;;;;;;;5.40;0.90;;;13.60;85.10;;;;;;5086780;28;20035;-76
2022/02/18 05:59:33;;;;;;;4.47;1.23;;;13.70;85.70;;;;;;5089326;28;20061;-76
2022/02/18 06:01:58;;;;;;;3.25;0.82;;;13.70;85.40;;;;;;5095334;28;20473;-76
2022/02/18 06:04:24;;;;;;;1.95;0.55;;;13.60;86.00;;;;;;5093165;28;20408;-75
2022/02/18 06:06:50;;;;;;;2.38;0.50;;;13.60;86.00;;;;;;5093728;28;20032;-76
2022/02/18 06:09:15;;;;;;;2.22;0.60;;;13.60;86.40;;;;;;5092712;28;20034;-75
2022/02/18 06:11:41;;;;;;;3.72;0.65;;;13.60;86.10;;;;;;5087332;28;20048;-75
2022/02/18 06:14:07;;;;;;;1.88;0.40;;;13.60;86.60;;;;;;5107384;28;20099;-76
2022/02/18 06:16:34;;;;;;;2.80;0.73;;;13.60;86.50;;;;;;5090896;28;20424;-76
2022/02/18 06:19:03;;;;;;;3.50;0.60;;;13.60;85.80;;;;;;5086597;28;20030;-76
2022/02/18 06:21:29;;;;;;;2.13;0.43;;;13.50;86.60;;;;;;5102512;28;20028;-76
2022/02/18 06:23:54;;;;;;;2.85;0.50;;;13.50;86.50;;;;;;5090496;28;20043;-75
2022/02/18 06:26:20;;;;;;;2.47;0.40;;;13.60;86.50;;;;;;5093228;28;20038;-75
2022/02/18 06:28:46;;;;;;;1.67;0.45;;;13.60;86.30;;;;;;5078587;28;20028;-76
2022/02/18 06:31:11;;;;;;;2.03;0.47;;;13.50;86.80;;;;;;5097764;28;20497;-76
2022/02/18 06:33:37;;;;;;;3.35;0.60;;;13.50;86.90;;;;;;5099434;28;20515;-76
2022/02/18 06:36:04;;;;;;;3.20;0.65;;;13.50;86.50;;;;;;5097801;28;20019;-75
2022/02/18 06:38:30;;;;;;;2.13;0.50;;;13.50;86.70;;;;;;5093585;28;20039;-76
2022/02/18 06:40:56;;;;;;;3.95;0.60;;;13.60;86.60;;;;;;5105004;28;20032;-75
2022/02/18 06:43:21;;;;;;;2.22;0.65;;;13.60;86.50;;;;;;5097038;28;20108;-75
2022/02/18 06:45:47;;;;;;;4.10;0.52;;;13.60;86.60;;;;;;5097496;28;20079;-75
2022/02/18 06:48:12;;;;;;;2.95;0.50;;;13.60;87.40;;;;;;5092667;28;20036;-75
2022/02/18 06:50:40;;;;;;;4.18;0.60;;;13.60;86.80;;;;;;5108515;28;20028;-75
2022/02/18 06:53:07;;;;;;;3.53;0.70;;;13.60;86.30;;;;;;5098324;28;20119;-75
2022/02/18 06:55:34;;;;;;;2.20;0.52;;;13.60;86.70;;;;;;5094672;28;20013;-75
2022/02/18 06:58:04;;;;;;;1.63;0.40;;;13.60;86.50;;;;;;5100608;28;20118;-75
2022/02/18 07:00:29;;;;;;;1.52;0.43;;;13.60;86.40;;;;;;5096660;28;20024;-76
2022/02/18 07:02:55;;;;;;;2.60;0.50;;;13.70;86.30;;;;;;5087877;28;20044;-74
2022/02/18 07:05:21;;;;;;;2.85;0.50;;;13.60;86.50;;;;;;5094074;28;20024;-73
2022/02/18 07:07:47;;;;;;;2.13;0.47;;;13.60;86.80;;;;;;5091513;28;20028;-74
2022/02/18 07:10:13;;;;;;;2.10;0.40;;;13.60;87.00;;;;;;5096160;28;20020;-75
2022/02/18 07:12:40;;;;;;;3.03;0.45;;;13.50;87.20;;;;;;5095115;28;20049;-75
2022/02/18 07:15:07;;;;;;;1.48;0.45;;;13.60;87.40;;;;;;5103726;28;20047;-74
2022/02/18 07:17:33;;;;;;;2.15;0.50;;;13.50;87.30;;;;;;5108380;28;20123;-75
2022/02/18 07:20:01;;;;;;;3.00;0.50;;;13.50;87.30;;;;;;5111945;28;20055;-74
2022/02/18 07:22:27;;;;;;;2.25;0.50;;;13.50;87.60;;;;;;5094202;28;20026;-75
2022/02/18 07:24:53;;;;;;;2.42;0.60;;;13.50;87.60;;;;;;5097915;28;20111;-75
2022/02/18 07:27:20;;;;;;;2.30;0.40;;;13.50;87.90;;;;;;5105712;28;20463;-75
2022/02/18 07:29:47;;;;;;;2.97;0.47;;;13.50;88.10;;;;;;5092365;28;20576;-76
2022/02/18 07:32:13;;;;;;;3.97;1.00;;;13.50;88.20;;;;;;5098785;28;20032;-75
2022/02/18 07:34:39;;;;;;;3.38;0.80;;;13.60;88.30;;;;;;5089813;28;20028;-76
2022/02/18 07:37:05;;;;;;;1.48;0.50;;;13.60;88.00;;;;;;5098539;28;20036;-75
2022/02/18 07:39:31;;;;;;;3.58;0.80;;;13.60;87.90;;;;;;5094591;28;20018;-75
2022/02/18 07:41:57;;;;;;;2.03;0.68;;;13.60;88.00;;;;;;5082360;28;20036;-74
2022/02/18 07:44:22;;;;;;;2.80;0.60;;;13.60;88.30;;;;;;5093481;28;20043;-74
2022/02/18 07:46:48;;;;;;;2.40;0.50;;;13.50;88.00;;;;;;5097797;28;20032;-74
2022/02/18 07:49:15;;;;;;;3.00;0.60;;;13.50;88.60;;;;;;5095311;28;20085;-74
2022/02/18 07:51:41;;;;;;;5.45;0.88;;;13.50;88.20;;;;;;5093776;28;20032;-74
2022/02/18 07:54:08;;;;;;;3.13;0.70;;;13.50;88.40;;;;;;5088854;28;20096;-75
2022/02/18 07:56:34;;;;;;;1.55;0.40;;;13.50;88.20;;;;;;5091468;28;20032;-74
2022/02/18 07:59:00;;;;;;;2.72;0.70;;;13.50;89.00;;;;;;5095627;28;20515;-74
2022/02/18 08:01:26;;;;;;;1.17;0.40;;;13.50;89.00;;;;;;5092995;28;20032;-74
2022/02/18 08:03:52;;;;;;;1.63;0.47;;;13.50;88.60;;;;;;5095886;28;20024;-74
2022/02/18 08:06:19;;;;;;;2.40;0.50;;;13.50;89.00;;;;;;5094845;28;20047;-75
2022/02/18 08:08:45;;;;;;;1.75;0.47;;;13.50;89.40;;;;;;5091593;28;20032;-74
2022/02/18 08:11:13;;;;;;;1.67;0.80;;;13.50;89.00;;;;;;5094828;28;20047;-75
2022/02/18 08:13:39;;;;;;;1.15;0.30;;;13.30;86.60;;;;;;5095707;28;20039;-74
2022/02/18 08:16:05;;;;;;;2.17;0.30;;;13.20;86.30;;;;;;5090789;28;20500;-74
2022/02/18 08:18:30;;;;;;;1.38;0.43;;;13.10;85.80;;;;;;5094003;28;20404;-74
2022/02/18 08:20:56;;;;;;;2.20;0.40;;;13.00;84.90;;;;;;5094766;28;20036;-74
2022/02/18 08:23:22;;;;;;;2.85;0.50;;;12.90;84.70;;;;;;5093795;28;20031;-74
2022/02/18 08:25:48;;;;;;;3.88;1.00;;;12.90;84.30;;;;;;5097459;28;20027;-75
2022/02/18 08:28:14;;;;;;;2.97;0.68;;;12.80;83.90;;;;;;5095070;28;20366;-74
2022/02/18 08:30:40;;;;;;;3.13;0.50;;;12.80;84.10;;;;;;5094570;28;20020;-75
2022/02/18 08:33:06;;;;;;;4.00;0.70;;;12.90;83.80;;;;;;5076766;28;20092;-69
2022/02/18 08:35:32;;;;;;;4.78;0.73;;;12.90;83.80;;;;;;5090407;28;20098;-74
2022/02/18 08:37:58;;;;;;;3.28;0.63;;;13.00;84.10;;;;;;5097274;28;20450;-74
2022/02/18 08:40:24;;;;;;;4.35;0.70;;;13.00;83.20;;;;;;5091323;28;20031;-76
2022/02/18 08:42:50;;;;;;;3.28;0.63;;;13.00;82.90;;;;;;5095027;28;20481;-75
2022/02/18 08:45:16;;;;;;;2.72;0.80;;;13.00;82.80;;;;;;5095152;28;20020;-75
2022/02/18 08:47:42;;;;;;;3.30;0.80;;;12.90;82.50;;;;;;5091107;28;20038;-73
2022/02/18 08:50:11;;;;;;;2.85;0.60;;;12.90;81.80;;;;;;5095465;28;20020;-82
2022/02/18 08:52:38;;;;;;;4.28;1.05;;;12.90;83.20;;;;;;5092648;28;20035;-74
2022/02/18 08:55:07;;;;;;;4.47;1.13;;;12.90;82.10;;;;;;5099896;28;20027;-68
2022/02/18 08:57:34;;;;;;;5.32;0.80;;;12.90;81.90;;;;;;5093150;28;20461;-74
2022/02/18 08:59:59;;;;;;;7.53;1.20;;;12.80;81.90;;;;;;5093200;28;20086;-73
2022/02/18 09:02:26;;;;;;;6.72;1.00;;;12.90;82.10;;;;;;5091721;28;20483;-74
2022/02/18 09:04:52;;;;;;;5.93;1.20;;;12.80;80.50;;;;;;5096671;28;20048;-80
2022/02/18 09:07:17;;;;;;;6.18;1.38;;;12.80;81.00;;;;;;5094924;28;20059;-76
2022/02/18 09:09:43;;;;;;;7.65;1.10;;;12.70;80.40;;;;;;5098713;28;20028;-75
2022/02/18 09:12:09;;;;;;;7.13;1.38;;;12.70;81.10;;;;;;5093513;28;20111;-74
2022/02/18 09:14:35;;;;;;;5.15;1.13;;;12.70;80.90;;;;;;5095539;28;20043;-73
2022/02/18 09:17:00;;;;;;;8.02;1.30;;;12.60;80.50;;;;;;5086937;28;20019;-73
2022/02/18 09:19:26;;;;;;;6.78;1.25;;;12.60;80.10;;;;;;5096525;28;20028;-73
2022/02/18 09:21:51;;;;;;;7.15;1.40;;;12.60;79.80;;;;;;5086498;28;20055;-73
2022/02/18 09:24:17;;;;;;;8.02;2.03;;;12.60;80.20;;;;;;5099223;28;20485;-76
2022/02/18 09:26:43;;;;;;;5.35;1.27;;;12.60;79.90;;;;;;5088361;28;20431;-75
2022/02/18 09:29:09;;;;;;;6.47;1.25;;;12.60;79.60;;;;;;5075117;28;20026;-71
2022/02/18 09:31:36;;;;;;;6.93;1.65;;;12.50;78.80;;;;;;5092291;28;20138;-77
2022/02/18 09:34:02;;;;;;;7.25;1.77;;;12.50;78.80;;;;;;5078866;28;20025;-80
2022/02/18 09:36:29;;;;;;;9.27;1.70;;;12.50;78.50;;;;;;5088788;28;20051;-79
2022/02/18 09:38:55;;;;;;;6.60;1.70;;;12.40;78.70;;;;;;5089232;28;20489;-79
2022/02/18 09:41:20;;;;;;;5.75;1.25;;;12.50;78.90;;;;;;5088291;28;20021;-82
2022/02/18 09:43:47;;;;;;;9.35;1.65;;;12.50;78.70;;;;;;5073795;28;20504;-84
2022/02/18 09:46:13;;;;;;;7.97;1.40;;;12.40;78.10;;;;;;5083441;28;20024;-82
2022/02/18 09:48:39;;;;;;;6.43;1.50;;;12.50;78.60;;;;;;5105076;28;20056;-80
2022/02/18 09:51:07;;;;;;;8.05;1.30;;;12.50;77.90;;;;;;5085675;28;20020;-91
2022/02/18 09:53:34;;;;;;;7.82;1.38;;;12.50;77.60;;;;;;5092579;28;20032;-88
2022/02/18 09:56:01;;;;;;;7.50;1.52;;;12.40;77.70;;;;;;5099036;28;20094;-84
2022/02/18 09:58:27;;;;;;;8.05;1.60;;;12.40;78.00;;;;;;5084326;28;20100;-87
2022/02/18 10:00:53;;;;;;;9.23;1.55;;;12.50;78.00;;;;;;5090886;28;20489;-83
2022/02/18 10:03:19;;;;;;;11.45;3.08;;;12.50;77.70;;;;;;5088741;28;20024;-80
2022/02/18 10:05:45;;;;;;;9.27;1.83;;;12.60;78.00;;;;;;5084203;28;20111;-79
2022/02/18 10:08:17;;;;;;;6.38;1.63;;;12.60;78.10;;;;;;5092524;28;20112;-79
2022/02/18 10:11:01;;;;;;;8.05;1.58;;;12.60;77.70;;;;;;5093637;28;20505;-85
2022/02/18 10:13:35;;;;;;;8.43;1.70;;;12.60;77.20;;;;;;5093216;28;20051;-75
2022/02/18 10:16:03;;;;;;;5.82;1.20;;;12.60;77.50;;;;;;5087433;28;20029;-82
2022/02/18 10:18:52;;;;;;;7.65;1.58;;;12.50;76.30;;;;;;5091328;28;20773;-83
2022/02/18 10:21:27;;;;;;;8.10;1.75;;;12.50;77.10;;;;;;5087430;28;20020;-81
2022/02/18 10:24:09;;;;;;;7.22;1.52;;;12.50;77.00;;;;;;5091648;28;20016;-85
2022/02/18 10:26:38;;;;;;;9.38;1.73;;;12.60;77.60;;;;;;5091759;28;20097;-86
2022/02/18 10:29:05;;;;;;;9.35;2.00;;;12.60;76.10;;;;;;5092562;28;20022;-80
2022/02/18 10:31:31;;;;;;;9.43;1.60;;;12.60;75.90;;;;;;5096589;28;20469;-84
2022/02/18 10:34:01;;;;;;;10.18;1.83;;;12.60;77.40;;;;;;5081436;28;20056;-83
2022/02/18 10:36:39;;;;;;;9.75;1.60;;;12.60;76.20;;;;;;5081151;28;20028;-81
2022/02/18 10:39:23;;;;;;;7.15;1.88;;;12.70;76.00;;;;;;5078816;28;20016;-81
2022/02/18 10:41:57;;;;;;;8.30;1.85;;;12.60;76.20;;;;;;5087084;28;20067;-82
2022/02/18 10:44:24;;;;;;;11.45;1.70;;;12.70;75.90;;;;;;5086376;28;20032;-81
2022/02/18 10:46:55;;;;;;;7.88;1.88;;;12.70;75.20;;;;;;5091756;28;20097;-73
2022/02/18 10:49:33;;;;;;;7.85;1.60;;;12.70;74.30;;;;;;5087773;28;20036;-73
2022/02/18 10:52:03;;;;;;;7.18;1.27;;;12.60;74.90;;;;;;5087168;28;20124;-73
2022/02/18 10:54:35;;;;;;;8.65;1.58;;;12.60;74.20;;;;;;5086153;28;20061;-73
2022/02/18 10:57:13;;;;;;;7.18;1.52;;;12.70;74.90;;;;;;5090746;28;20448;-76
2022/02/18 10:59:38;;;;;;;6.75;1.65;;;12.70;74.00;;;;;;5077577;28;20039;-72
2022/02/18 11:02:04;;;;;;;9.13;1.65;;;12.70;74.00;;;;;;5093627;28;20739;-72
2022/02/18 11:04:29;;;;;;;6.65;1.40;;;12.80;74.10;;;;;;5095084;28;20027;-73
2022/02/18 11:07:09;;;;;;;7.68;1.50;;;12.70;73.50;;;;;;5086636;28;20046;-75
2022/02/18 11:09:35;;;;;;;6.68;1.50;;;12.80;74.00;;;;;;5093928;28;20101;-77
2022/02/18 11:12:09;;;;;;;7.00;1.73;;;12.80;74.30;;;;;;5092563;28;20040;-76
2022/02/18 11:14:48;;;;;;;8.57;1.70;;;12.80;73.40;;;;;;5070953;28;20117;-77
2022/02/18 11:17:14;;;;;;;10.80;1.63;;;12.90;73.30;;;;;;5084661;28;20020;-76
2022/02/18 11:19:44;;;;;;;6.25;1.30;;;12.90;72.70;;;;;;5089251;28;20030;-76
2022/02/18 11:22:10;;;;;;;10.35;1.88;;;12.90;72.90;;;;;;5092526;28;20458;-75
2022/02/18 11:24:38;;;;;;;6.28;1.67;;;13.10;73.90;;;;;;5089181;28;20540;-73
2022/02/18 11:27:04;;;;;;;8.52;1.45;;;13.10;72.00;;;;;;5087726;28;20021;-73
2022/02/18 11:29:35;;;;;;;10.82;1.83;;;13.00;72.30;;;;;;5081765;28;20488;-74
2022/02/18 11:32:12;;;;;;;7.25;1.60;;;13.20;72.90;;;;;;5085883;28;20119;-80
2022/02/18 11:34:41;;;;;;;7.78;1.83;;;13.40;73.40;;;;;;5086910;28;20487;-77
2022/02/18 11:37:30;;;;;;;10.55;1.92;;;13.50;72.90;;;;;;5082922;28;20050;-76
2022/02/18 11:40:11;;;;;;;6.43;1.70;;;13.70;72.90;;;;;;5084259;28;20037;-81
2022/02/18 11:43:01;;;;;;;9.95;1.50;;;14.00;73.00;;;;;;5081633;28;20029;-76
2022/02/18 11:45:27;;;;;;;6.47;1.30;;;14.00;72.10;;;;;;5079719;28;20024;-76
2022/02/18 11:47:53;;;;;;;7.78;2.10;;;14.00;71.00;;;;;;5096093;28;20029;-76
2022/02/18 11:50:26;;;;;;;5.40;1.30;;;14.00;71.30;;;;;;5090577;28;20042;-74
2022/02/18 11:52:52;;;;;;;5.68;1.20;;;14.00;71.20;;;;;;5077018;28;20033;-76
2022/02/18 11:55:37;;;;;;;6.18;1.65;;;13.90;70.10;;;;;;5068275;28;20094;-80
2022/02/18 11:58:13;;;;;;;5.63;1.45;;;13.80;70.50;;;;;;5087320;28;20036;-79
2022/02/18 12:00:48;;;;;;;5.07;1.33;;;13.70;69.60;;;;;;5083822;28;20396;-80
2022/02/18 12:03:19;;;;;;;7.15;1.80;;;13.70;69.20;;;;;;5094773;28;20065;-79
2022/02/18 12:06:09;;;;;;;5.90;1.33;;;13.70;67.90;;;;;;5096555;28;20015;-79
2022/02/18 12:08:52;;;;;;;7.43;1.35;;;13.80;70.20;;;;;;5105400;28;20111;-80
2022/02/18 12:11:20;;;;;;;5.03;1.30;;;13.90;67.20;;;;;;5099931;28;20035;-80
2022/02/18 12:14:06;;;;;;;6.57;1.52;;;14.00;68.10;;;;;;5102132;28;20024;-84
2022/02/18 12:16:32;;;;;;;4.10;1.08;;;14.20;68.70;;;;;;5084718;28;20039;-70
2022/02/18 12:19:05;;;;;;;6.40;1.30;;;14.50;67.30;;;;;;5097334;28;20110;-78
2022/02/18 12:21:32;;;;;;;3.35;0.90;;;14.50;64.90;;;;;;5111762;27;20493;-74
2022/02/18 12:24:17;;;;;;;3.28;0.77;;;14.40;64.30;;;;;;5085033;28;20031;-78
2022/02/18 12:26:43;;;;;;;4.47;1.10;;;14.20;64.80;;;;;;5086438;28;20032;-80
2022/02/18 12:29:15;;;;;;;6.53;1.38;;;14.20;64.80;;;;;;5097818;28;20035;-79
2022/02/18 12:31:54;;;;;;;8.80;1.95;;;14.10;64.30;;;;;;5097573;28;20036;-71
2022/02/18 12:34:28;;;;;;;4.25;1.13;;;14.20;66.50;;;;;;5070111;28;20107;-70
2022/02/18 12:36:54;;;;;;;5.47;1.23;;;14.20;64.50;;;;;;5092740;28;20024;-70
2022/02/18 12:39:44;;;;;;;4.70;1.15;;;14.30;65.00;;;;;;5088735;28;20016;-70
2022/02/18 12:42:13;;;;;;;3.03;1.00;;;14.30;65.80;;;;;;5094097;28;20016;-76
2022/02/18 12:44:50;;;;;;;6.25;1.25;;;14.40;63.80;;;;;;5093068;28;20174;-68
2022/02/18 12:47:30;;;;;;;4.63;1.00;;;14.40;64.30;;;;;;5095802;28;20420;-74